sensor_id;sensor_type;location;lat;lon;timestamp;P1;durP1;ratioP1;P2;durP2;ratioP2
22557;SDS011;11445;53.816;8.902;2023-01-24T00:00:40;30.17;;;15.20;;
22557;SDS011;11445;53.816;8.902;2023-01-24T00:03:09;30.75;;;15.40;;
22557;SDS011;11445;53.816;8.902;2023-01-24T00:05:37;28.42;;;15.10;;
22557;SDS011;11445;53.816;8.902;2023-01-24T00:08:04;32.97;;;16.60;;
22557;SDS011;11445;53.816;8.902;2023-01-24T00:10:31;35.08;;;17.10;;
22557;SDS011;11445;53.816;8.902;2023-01-24T00:12:58;29.05;;;15.57;;
22557;SDS011;11445;53.816;8.902;2023-01-24T00:15:25;32.67;;;15.43;;
22557;SDS011;11445;53.816;8.902;2023-01-24T00:17:52;28.38;;;14.65;;
22557;SDS011;11445;53.816;8.902;2023-01-24T00:20:21;25.27;;;14.27;;
22557;SDS011;11445;53.816;8.902;2023-01-24T00:22:48;35.42;;;15.63;;
22557;SDS011;11445;53.816;8.902;2023-01-24T00:25:15;27.23;;;14.57;;
22557;SDS011;11445;53.816;8.902;2023-01-24T00:27:42;32.95;;;14.50;;
22557;SDS011;11445;53.816;8.902;2023-01-24T00:30:10;31.10;;;14.85;;
22557;SDS011;11445;53.816;8.902;2023-01-24T00:32:37;28.65;;;15.25;;
22557;SDS011;11445;53.816;8.902;2023-01-24T00:35:04;31.35;;;15.02;;
22557;SDS011;11445;53.816;8.902;2023-01-24T00:37:33;30.35;;;14.98;;
22557;SDS011;11445;53.816;8.902;2023-01-24T00:40:00;26.08;;;14.77;;
22557;SDS011;11445;53.816;8.902;2023-01-24T00:42:27;32.00;;;15.30;;
22557;SDS011;11445;53.816;8.902;2023-01-24T00:44:54;30.08;;;14.32;;
22557;SDS011;11445;53.816;8.902;2023-01-24T00:47:21;33.63;;;15.75;;
22557;SDS011;11445;53.816;8.902;2023-01-24T00:49:50;37.08;;;15.68;;
22557;SDS011;11445;53.816;8.902;2023-01-24T00:52:17;32.13;;;16.08;;
22557;SDS011;11445;53.816;8.902;2023-01-24T00:54:45;31.30;;;14.60;;
22557;SDS011;11445;53.816;8.902;2023-01-24T00:57:13;29.50;;;14.73;;
22557;SDS011;11445;53.816;8.902;2023-01-24T00:59:40;26.42;;;14.85;;
22557;SDS011;11445;53.816;8.902;2023-01-24T01:02:07;27.70;;;14.35;;
22557;SDS011;11445;53.816;8.902;2023-01-24T01:04:34;31.95;;;15.35;;
22557;SDS011;11445;53.816;8.902;2023-01-24T01:07:01;30.42;;;14.25;;
22557;SDS011;11445;53.816;8.902;2023-01-24T01:09:28;29.08;;;14.20;;
22557;SDS011;11445;53.816;8.902;2023-01-24T01:11:56;28.33;;;15.10;;
22557;SDS011;11445;53.816;8.902;2023-01-24T01:14:23;31.20;;;14.68;;
22557;SDS011;11445;53.816;8.902;2023-01-24T01:16:50;30.88;;;14.73;;
22557;SDS011;11445;53.816;8.902;2023-01-24T01:19:17;34.03;;;15.02;;
22557;SDS011;11445;53.816;8.902;2023-01-24T01:21:44;32.10;;;15.85;;
22557;SDS011;11445;53.816;8.902;2023-01-24T01:24:12;32.17;;;15.10;;
22557;SDS011;11445;53.816;8.902;2023-01-24T01:26:39;29.05;;;15.05;;
22557;SDS011;11445;53.816;8.902;2023-01-24T01:29:07;28.08;;;14.63;;
22557;SDS011;11445;53.816;8.902;2023-01-24T01:31:35;30.02;;;14.27;;
22557;SDS011;11445;53.816;8.902;2023-01-24T01:34:02;32.75;;;15.30;;
22557;SDS011;11445;53.816;8.902;2023-01-24T01:36:29;30.77;;;16.10;;
22557;SDS011;11445;53.816;8.902;2023-01-24T01:38:56;31.55;;;15.90;;
22557;SDS011;11445;53.816;8.902;2023-01-24T01:41:23;32.00;;;14.52;;
22557;SDS011;11445;53.816;8.902;2023-01-24T01:43:50;28.33;;;14.90;;
22557;SDS011;11445;53.816;8.902;2023-01-24T01:46:36;29.75;;;14.75;;
22557;SDS011;11445;53.816;8.902;2023-01-24T01:49:09;36.58;;;15.82;;
22557;SDS011;11445;53.816;8.902;2023-01-24T01:51:43;33.70;;;16.23;;
22557;SDS011;11445;53.816;8.902;2023-01-24T01:54:14;29.92;;;15.27;;
22557;SDS011;11445;53.816;8.902;2023-01-24T01:56:45;27.33;;;14.70;;
22557;SDS011;11445;53.816;8.902;2023-01-24T01:59:14;31.98;;;16.10;;
22557;SDS011;11445;53.816;8.902;2023-01-24T02:01:46;32.13;;;14.68;;
22557;SDS011;11445;53.816;8.902;2023-01-24T02:04:16;32.75;;;16.80;;
22557;SDS011;11445;53.816;8.902;2023-01-24T02:06:49;28.42;;;15.20;;
22557;SDS011;11445;53.816;8.902;2023-01-24T02:09:21;29.63;;;15.02;;
22557;SDS011;11445;53.816;8.902;2023-01-24T02:11:50;30.45;;;15.23;;
22557;SDS011;11445;53.816;8.902;2023-01-24T02:14:20;30.10;;;15.40;;
22557;SDS011;11445;53.816;8.902;2023-01-24T02:17:08;33.25;;;15.27;;
22557;SDS011;11445;53.816;8.902;2023-01-24T02:19:41;30.55;;;15.30;;
22557;SDS011;11445;53.816;8.902;2023-01-24T02:22:28;35.85;;;15.80;;
22557;SDS011;11445;53.816;8.902;2023-01-24T02:25:06;29.17;;;14.32;;
22557;SDS011;11445;53.816;8.902;2023-01-24T02:27:42;30.60;;;15.02;;
22557;SDS011;11445;53.816;8.902;2023-01-24T02:30:09;33.53;;;16.67;;
22557;SDS011;11445;53.816;8.902;2023-01-24T02:32:37;26.70;;;14.45;;
22557;SDS011;11445;53.816;8.902;2023-01-24T02:35:04;34.92;;;15.15;;
22557;SDS011;11445;53.816;8.902;2023-01-24T02:37:32;32.42;;;14.93;;
22557;SDS011;11445;53.816;8.902;2023-01-24T02:40:02;33.17;;;15.55;;
22557;SDS011;11445;53.816;8.902;2023-01-24T02:42:33;31.05;;;15.23;;
22557;SDS011;11445;53.816;8.902;2023-01-24T02:45:05;35.40;;;15.60;;
22557;SDS011;11445;53.816;8.902;2023-01-24T02:47:38;33.92;;;15.35;;
22557;SDS011;11445;53.816;8.902;2023-01-24T02:50:10;32.67;;;15.65;;
22557;SDS011;11445;53.816;8.902;2023-01-24T02:52:37;30.15;;;15.10;;
22557;SDS011;11445;53.816;8.902;2023-01-24T02:55:22;27.73;;;14.75;;
22557;SDS011;11445;53.816;8.902;2023-01-24T02:57:49;27.65;;;14.63;;
22557;SDS011;11445;53.816;8.902;2023-01-24T03:00:32;32.78;;;15.65;;
22557;SDS011;11445;53.816;8.902;2023-01-24T03:03:00;29.77;;;15.25;;
22557;SDS011;11445;53.816;8.902;2023-01-24T03:05:28;30.05;;;15.20;;
22557;SDS011;11445;53.816;8.902;2023-01-24T03:08:05;29.15;;;15.00;;
22557;SDS011;11445;53.816;8.902;2023-01-24T03:10:33;26.10;;;14.07;;
22557;SDS011;11445;53.816;8.902;2023-01-24T03:13:01;27.73;;;15.20;;
22557;SDS011;11445;53.816;8.902;2023-01-24T03:15:46;29.38;;;14.13;;
22557;SDS011;11445;53.816;8.902;2023-01-24T03:18:30;28.05;;;14.93;;
22557;SDS011;11445;53.816;8.902;2023-01-24T03:21:15;30.10;;;14.63;;
22557;SDS011;11445;53.816;8.902;2023-01-24T03:23:59;28.33;;;15.30;;
22557;SDS011;11445;53.816;8.902;2023-01-24T03:26:44;25.92;;;14.55;;
22557;SDS011;11445;53.816;8.902;2023-01-24T03:29:28;28.48;;;14.85;;
22557;SDS011;11445;53.816;8.902;2023-01-24T03:32:14;29.70;;;14.50;;
22557;SDS011;11445;53.816;8.902;2023-01-24T03:34:58;27.40;;;14.70;;
22557;SDS011;11445;53.816;8.902;2023-01-24T03:37:25;27.40;;;14.02;;
22557;SDS011;11445;53.816;8.902;2023-01-24T03:40:11;27.00;;;14.10;;
22557;SDS011;11445;53.816;8.902;2023-01-24T03:42:39;25.20;;;14.32;;
22557;SDS011;11445;53.816;8.902;2023-01-24T03:47:43;27.27;;;13.85;;
22557;SDS011;11445;53.816;8.902;2023-01-24T03:50:19;18.02;;;11.27;;
22557;SDS011;11445;53.816;8.902;2023-01-24T03:53:05;16.08;;;9.50;;
22557;SDS011;11445;53.816;8.902;2023-01-24T03:55:33;17.67;;;9.88;;
22557;SDS011;11445;53.816;8.902;2023-01-24T03:58:00;18.48;;;10.27;;
22557;SDS011;11445;53.816;8.902;2023-01-24T04:00:27;17.83;;;9.45;;
22557;SDS011;11445;53.816;8.902;2023-01-24T04:02:55;13.52;;;8.70;;
22557;SDS011;11445;53.816;8.902;2023-01-24T04:05:23;12.70;;;7.75;;
22557;SDS011;11445;53.816;8.902;2023-01-24T04:07:50;16.13;;;9.27;;
22557;SDS011;11445;53.816;8.902;2023-01-24T04:10:17;17.95;;;10.50;;
22557;SDS011;11445;53.816;8.902;2023-01-24T04:12:44;23.92;;;11.82;;
22557;SDS011;11445;53.816;8.902;2023-01-24T04:15:14;21.55;;;11.68;;
22557;SDS011;11445;53.816;8.902;2023-01-24T04:17:42;21.02;;;11.90;;
22557;SDS011;11445;53.816;8.902;2023-01-24T04:20:11;22.92;;;12.50;;
22557;SDS011;11445;53.816;8.902;2023-01-24T04:22:38;27.35;;;13.02;;
22557;SDS011;11445;53.816;8.902;2023-01-24T04:25:06;24.23;;;14.23;;
22557;SDS011;11445;53.816;8.902;2023-01-24T04:27:34;24.55;;;12.98;;
22557;SDS011;11445;53.816;8.902;2023-01-24T04:30:02;21.90;;;12.45;;
22557;SDS011;11445;53.816;8.902;2023-01-24T04:32:30;23.23;;;13.43;;
22557;SDS011;11445;53.816;8.902;2023-01-24T04:34:57;24.48;;;13.45;;
22557;SDS011;11445;53.816;8.902;2023-01-24T04:37:26;23.63;;;13.63;;
22557;SDS011;11445;53.816;8.902;2023-01-24T04:39:53;24.17;;;12.70;;
22557;SDS011;11445;53.816;8.902;2023-01-24T04:42:20;21.83;;;12.95;;
22557;SDS011;11445;53.816;8.902;2023-01-24T04:44:47;22.63;;;12.65;;
22557;SDS011;11445;53.816;8.902;2023-01-24T04:47:14;21.15;;;11.40;;
22557;SDS011;11445;53.816;8.902;2023-01-24T04:49:41;13.93;;;8.98;;
22557;SDS011;11445;53.816;8.902;2023-01-24T04:52:08;12.20;;;7.85;;
22557;SDS011;11445;53.816;8.902;2023-01-24T04:54:38;13.85;;;8.35;;
22557;SDS011;11445;53.816;8.902;2023-01-24T04:57:05;16.65;;;8.60;;
22557;SDS011;11445;53.816;8.902;2023-01-24T04:59:32;13.13;;;8.48;;
22557;SDS011;11445;53.816;8.902;2023-01-24T05:01:59;15.23;;;9.45;;
22557;SDS011;11445;53.816;8.902;2023-01-24T05:04:26;15.98;;;9.50;;
22557;SDS011;11445;53.816;8.902;2023-01-24T05:06:53;15.32;;;9.38;;
22557;SDS011;11445;53.816;8.902;2023-01-24T05:09:21;16.45;;;9.98;;
22557;SDS011;11445;53.816;8.902;2023-01-24T05:11:50;18.13;;;9.90;;
22557;SDS011;11445;53.816;8.902;2023-01-24T05:14:17;18.85;;;10.07;;
22557;SDS011;11445;53.816;8.902;2023-01-24T05:16:44;19.40;;;11.15;;
22557;SDS011;11445;53.816;8.902;2023-01-24T05:19:11;17.50;;;10.60;;
22557;SDS011;11445;53.816;8.902;2023-01-24T05:21:38;20.52;;;12.38;;
22557;SDS011;11445;53.816;8.902;2023-01-24T05:24:05;20.55;;;12.52;;
22557;SDS011;11445;53.816;8.902;2023-01-24T05:26:32;20.25;;;12.00;;
22557;SDS011;11445;53.816;8.902;2023-01-24T05:29:01;25.98;;;13.25;;
22557;SDS011;11445;53.816;8.902;2023-01-24T05:31:28;21.13;;;12.35;;
22557;SDS011;11445;53.816;8.902;2023-01-24T05:33:55;21.52;;;12.95;;
22557;SDS011;11445;53.816;8.902;2023-01-24T05:36:22;21.67;;;12.50;;
22557;SDS011;11445;53.816;8.902;2023-01-24T05:38:50;23.33;;;11.63;;
22557;SDS011;11445;53.816;8.902;2023-01-24T05:41:18;16.00;;;9.98;;
22557;SDS011;11445;53.816;8.902;2023-01-24T05:43:46;16.13;;;9.35;;
22557;SDS011;11445;53.816;8.902;2023-01-24T05:46:15;16.55;;;9.30;;
22557;SDS011;11445;53.816;8.902;2023-01-24T05:48:43;14.07;;;8.95;;
22557;SDS011;11445;53.816;8.902;2023-01-24T05:51:12;17.50;;;9.73;;
22557;SDS011;11445;53.816;8.902;2023-01-24T05:53:41;15.48;;;9.70;;
22557;SDS011;11445;53.816;8.902;2023-01-24T05:56:10;15.73;;;10.05;;
22557;SDS011;11445;53.816;8.902;2023-01-24T05:58:38;15.88;;;9.82;;
22557;SDS011;11445;53.816;8.902;2023-01-24T06:01:07;15.57;;;9.55;;
22557;SDS011;11445;53.816;8.902;2023-01-24T06:03:37;21.40;;;9.40;;
22557;SDS011;11445;53.816;8.902;2023-01-24T06:06:06;17.17;;;9.55;;
22557;SDS011;11445;53.816;8.902;2023-01-24T06:08:33;14.55;;;9.38;;
22557;SDS011;11445;53.816;8.902;2023-01-24T06:11:01;17.60;;;10.05;;
22557;SDS011;11445;53.816;8.902;2023-01-24T06:13:29;19.77;;;9.43;;
22557;SDS011;11445;53.816;8.902;2023-01-24T06:16:00;19.17;;;10.10;;
22557;SDS011;11445;53.816;8.902;2023-01-24T06:18:28;18.38;;;10.45;;
22557;SDS011;11445;53.816;8.902;2023-01-24T06:20:57;16.27;;;10.35;;
22557;SDS011;11445;53.816;8.902;2023-01-24T06:23:25;19.20;;;10.82;;
22557;SDS011;11445;53.816;8.902;2023-01-24T06:25:53;18.30;;;9.85;;
22557;SDS011;11445;53.816;8.902;2023-01-24T06:28:21;20.50;;;10.75;;
22557;SDS011;11445;53.816;8.902;2023-01-24T06:30:50;18.67;;;10.38;;
22557;SDS011;11445;53.816;8.902;2023-01-24T06:33:29;22.10;;;11.00;;
22557;SDS011;11445;53.816;8.902;2023-01-24T06:36:09;19.83;;;10.57;;
22557;SDS011;11445;53.816;8.902;2023-01-24T06:38:50;18.40;;;10.10;;
22557;SDS011;11445;53.816;8.902;2023-01-24T06:41:17;16.50;;;9.70;;
22557;SDS011;11445;53.816;8.902;2023-01-24T06:43:45;14.07;;;8.90;;
22557;SDS011;11445;53.816;8.902;2023-01-24T06:46:13;17.48;;;9.20;;
22557;SDS011;11445;53.816;8.902;2023-01-24T06:48:41;15.65;;;9.15;;
22557;SDS011;11445;53.816;8.902;2023-01-24T06:51:11;16.25;;;9.13;;
22557;SDS011;11445;53.816;8.902;2023-01-24T06:53:39;13.55;;;7.70;;
22557;SDS011;11445;53.816;8.902;2023-01-24T06:56:06;20.05;;;11.02;;
22557;SDS011;11445;53.816;8.902;2023-01-24T06:58:34;18.98;;;10.40;;
22557;SDS011;11445;53.816;8.902;2023-01-24T07:01:01;18.48;;;10.55;;
22557;SDS011;11445;53.816;8.902;2023-01-24T07:03:28;19.60;;;11.40;;
22557;SDS011;11445;53.816;8.902;2023-01-24T07:05:55;17.98;;;10.40;;
22557;SDS011;11445;53.816;8.902;2023-01-24T07:08:24;17.90;;;10.48;;
22557;SDS011;11445;53.816;8.902;2023-01-24T07:10:51;17.65;;;9.75;;
22557;SDS011;11445;53.816;8.902;2023-01-24T07:13:18;13.95;;;8.48;;
22557;SDS011;11445;53.816;8.902;2023-01-24T07:15:45;16.90;;;9.45;;
22557;SDS011;11445;53.816;8.902;2023-01-24T07:18:12;20.98;;;9.38;;
22557;SDS011;11445;53.816;8.902;2023-01-24T07:20:41;18.02;;;9.77;;
22557;SDS011;11445;53.816;8.902;2023-01-24T07:23:12;15.85;;;8.88;;
22557;SDS011;11445;53.816;8.902;2023-01-24T07:25:47;16.13;;;9.15;;
22557;SDS011;11445;53.816;8.902;2023-01-24T07:28:15;16.92;;;9.98;;
22557;SDS011;11445;53.816;8.902;2023-01-24T07:30:43;17.88;;;10.32;;
22557;SDS011;11445;53.816;8.902;2023-01-24T07:33:11;15.45;;;9.57;;
22557;SDS011;11445;53.816;8.902;2023-01-24T07:35:39;15.45;;;10.00;;
22557;SDS011;11445;53.816;8.902;2023-01-24T07:38:06;18.83;;;10.27;;
22557;SDS011;11445;53.816;8.902;2023-01-24T07:40:34;16.67;;;9.95;;
22557;SDS011;11445;53.816;8.902;2023-01-24T07:43:03;15.95;;;10.15;;
22557;SDS011;11445;53.816;8.902;2023-01-24T07:45:31;18.15;;;9.93;;
22557;SDS011;11445;53.816;8.902;2023-01-24T07:48:00;16.85;;;10.02;;
22557;SDS011;11445;53.816;8.902;2023-01-24T07:50:27;22.55;;;10.90;;
22557;SDS011;11445;53.816;8.902;2023-01-24T07:52:56;19.88;;;12.00;;
22557;SDS011;11445;53.816;8.902;2023-01-24T07:55:24;21.08;;;11.57;;
22557;SDS011;11445;53.816;8.902;2023-01-24T07:57:51;21.75;;;11.60;;
22557;SDS011;11445;53.816;8.902;2023-01-24T08:00:25;19.25;;;11.45;;
22557;SDS011;11445;53.816;8.902;2023-01-24T08:02:52;20.88;;;11.82;;
22557;SDS011;11445;53.816;8.902;2023-01-24T08:05:19;20.33;;;11.23;;
22557;SDS011;11445;53.816;8.902;2023-01-24T08:07:46;20.63;;;10.27;;
22557;SDS011;11445;53.816;8.902;2023-01-24T08:10:13;17.38;;;10.98;;
22557;SDS011;11445;53.816;8.902;2023-01-24T08:12:40;19.30;;;11.75;;
22557;SDS011;11445;53.816;8.902;2023-01-24T08:15:07;19.65;;;10.88;;
22557;SDS011;11445;53.816;8.902;2023-01-24T08:17:36;19.10;;;11.00;;
22557;SDS011;11445;53.816;8.902;2023-01-24T08:20:05;18.80;;;10.68;;
22557;SDS011;11445;53.816;8.902;2023-01-24T08:22:33;23.15;;;11.10;;
22557;SDS011;11445;53.816;8.902;2023-01-24T08:25:00;22.55;;;11.98;;
22557;SDS011;11445;53.816;8.902;2023-01-24T08:27:27;25.55;;;11.85;;
22557;SDS011;11445;53.816;8.902;2023-01-24T08:29:54;22.63;;;12.27;;
22557;SDS011;11445;53.816;8.902;2023-01-24T08:32:21;19.60;;;11.30;;
22557;SDS011;11445;53.816;8.902;2023-01-24T08:34:50;18.90;;;11.07;;
22557;SDS011;11445;53.816;8.902;2023-01-24T08:37:17;19.52;;;11.68;;
22557;SDS011;11445;53.816;8.902;2023-01-24T08:39:44;20.23;;;11.60;;
22557;SDS011;11445;53.816;8.902;2023-01-24T08:42:11;21.20;;;11.30;;
22557;SDS011;11445;53.816;8.902;2023-01-24T08:44:38;19.83;;;11.02;;
22557;SDS011;11445;53.816;8.902;2023-01-24T08:47:05;17.77;;;10.30;;
22557;SDS011;11445;53.816;8.902;2023-01-24T08:49:32;19.60;;;9.95;;
22557;SDS011;11445;53.816;8.902;2023-01-24T08:52:01;17.70;;;9.68;;
22557;SDS011;11445;53.816;8.902;2023-01-24T08:54:28;20.02;;;10.18;;
22557;SDS011;11445;53.816;8.902;2023-01-24T08:56:57;19.15;;;10.95;;
22557;SDS011;11445;53.816;8.902;2023-01-24T08:59:24;20.63;;;10.60;;
22557;SDS011;11445;53.816;8.902;2023-01-24T09:01:51;20.60;;;10.25;;
22557;SDS011;11445;53.816;8.902;2023-01-24T09:04:18;20.77;;;10.73;;
22557;SDS011;11445;53.816;8.902;2023-01-24T09:06:45;21.40;;;11.32;;
22557;SDS011;11445;53.816;8.902;2023-01-24T09:09:14;26.17;;;10.80;;
22557;SDS011;11445;53.816;8.902;2023-01-24T09:11:41;19.58;;;11.48;;
22557;SDS011;11445;53.816;8.902;2023-01-24T09:14:08;20.15;;;10.85;;
22557;SDS011;11445;53.816;8.902;2023-01-24T09:16:35;17.88;;;10.57;;
22557;SDS011;11445;53.816;8.902;2023-01-24T09:19:02;20.02;;;11.57;;
22557;SDS011;11445;53.816;8.902;2023-01-24T09:21:29;22.25;;;10.93;;
22557;SDS011;11445;53.816;8.902;2023-01-24T09:23:56;18.80;;;10.95;;
22557;SDS011;11445;53.816;8.902;2023-01-24T09:26:26;19.45;;;11.13;;
22557;SDS011;11445;53.816;8.902;2023-01-24T09:28:53;19.38;;;11.15;;
22557;SDS011;11445;53.816;8.902;2023-01-24T09:31:20;22.25;;;11.07;;
22557;SDS011;11445;53.816;8.902;2023-01-24T09:33:47;18.95;;;11.38;;
22557;SDS011;11445;53.816;8.902;2023-01-24T09:36:14;19.63;;;11.07;;
22557;SDS011;11445;53.816;8.902;2023-01-24T09:38:41;22.25;;;11.98;;
22557;SDS011;11445;53.816;8.902;2023-01-24T09:41:10;20.55;;;11.43;;
22557;SDS011;11445;53.816;8.902;2023-01-24T09:43:47;21.35;;;11.25;;
22557;SDS011;11445;53.816;8.902;2023-01-24T09:46:19;18.02;;;10.45;;
22557;SDS011;11445;53.816;8.902;2023-01-24T09:48:52;24.50;;;11.75;;
22557;SDS011;11445;53.816;8.902;2023-01-24T09:51:27;17.35;;;10.15;;
22557;SDS011;11445;53.816;8.902;2023-01-24T09:53:57;15.82;;;10.02;;
22557;SDS011;11445;53.816;8.902;2023-01-24T09:56:29;16.92;;;9.75;;
22557;SDS011;11445;53.816;8.902;2023-01-24T09:59:05;17.40;;;10.10;;
22557;SDS011;11445;53.816;8.902;2023-01-24T10:01:40;17.60;;;10.13;;
22557;SDS011;11445;53.816;8.902;2023-01-24T10:04:14;20.30;;;10.55;;
22557;SDS011;11445;53.816;8.902;2023-01-24T10:06:45;19.05;;;9.93;;
22557;SDS011;11445;53.816;8.902;2023-01-24T10:09:32;20.90;;;10.63;;
22557;SDS011;11445;53.816;8.902;2023-01-24T10:12:13;20.40;;;10.95;;
22557;SDS011;11445;53.816;8.902;2023-01-24T10:14:53;21.52;;;10.98;;
22557;SDS011;11445;53.816;8.902;2023-01-24T10:17:34;18.33;;;10.63;;
22557;SDS011;11445;53.816;8.902;2023-01-24T10:20:27;18.05;;;10.13;;
22557;SDS011;11445;53.816;8.902;2023-01-24T10:23:05;17.83;;;10.27;;
22557;SDS011;11445;53.816;8.902;2023-01-24T10:28:23;20.13;;;10.80;;
22557;SDS011;11445;53.816;8.902;2023-01-24T10:30:55;20.75;;;11.40;;
22557;SDS011;11445;53.816;8.902;2023-01-24T10:33:28;23.15;;;11.18;;
22557;SDS011;11445;53.816;8.902;2023-01-24T10:35:58;21.27;;;11.48;;
22557;SDS011;11445;53.816;8.902;2023-01-24T10:38:29;20.92;;;11.32;;
22557;SDS011;11445;53.816;8.902;2023-01-24T10:40:56;17.70;;;10.55;;
22557;SDS011;11445;53.816;8.902;2023-01-24T10:43:36;23.40;;;11.75;;
22557;SDS011;11445;53.816;8.902;2023-01-24T10:46:09;23.30;;;12.10;;
22557;SDS011;11445;53.816;8.902;2023-01-24T10:48:45;20.98;;;10.98;;
22557;SDS011;11445;53.816;8.902;2023-01-24T10:51:18;19.48;;;10.93;;
22557;SDS011;11445;53.816;8.902;2023-01-24T10:53:46;21.70;;;11.43;;
22557;SDS011;11445;53.816;8.902;2023-01-24T10:56:15;22.98;;;11.27;;
22557;SDS011;11445;53.816;8.902;2023-01-24T10:58:54;25.52;;;9.55;;
22557;SDS011;11445;53.816;8.902;2023-01-24T11:01:32;24.23;;;11.13;;
22557;SDS011;11445;53.816;8.902;2023-01-24T11:04:11;22.45;;;10.35;;
22557;SDS011;11445;53.816;8.902;2023-01-24T11:06:42;19.48;;;10.80;;
22557;SDS011;11445;53.816;8.902;2023-01-24T11:09:12;18.42;;;10.98;;
22557;SDS011;11445;53.816;8.902;2023-01-24T11:11:42;19.77;;;10.48;;
22557;SDS011;11445;53.816;8.902;2023-01-24T11:14:14;20.45;;;11.23;;
22557;SDS011;11445;53.816;8.902;2023-01-24T11:16:46;19.80;;;11.00;;
22557;SDS011;11445;53.816;8.902;2023-01-24T11:19:23;20.67;;;11.27;;
22557;SDS011;11445;53.816;8.902;2023-01-24T11:21:54;17.90;;;11.02;;
22557;SDS011;11445;53.816;8.902;2023-01-24T11:24:22;22.33;;;11.23;;
22557;SDS011;11445;53.816;8.902;2023-01-24T11:26:51;23.40;;;11.27;;
22557;SDS011;11445;53.816;8.902;2023-01-24T11:29:21;21.77;;;9.95;;
22557;SDS011;11445;53.816;8.902;2023-01-24T11:31:50;25.10;;;12.02;;
22557;SDS011;11445;53.816;8.902;2023-01-24T11:34:35;18.88;;;10.75;;
22557;SDS011;11445;53.816;8.902;2023-01-24T11:37:13;21.75;;;10.90;;
22557;SDS011;11445;53.816;8.902;2023-01-24T11:40:01;23.15;;;11.13;;
22557;SDS011;11445;53.816;8.902;2023-01-24T11:42:41;22.55;;;10.88;;
22557;SDS011;11445;53.816;8.902;2023-01-24T11:45:23;20.20;;;10.68;;
22557;SDS011;11445;53.816;8.902;2023-01-24T11:48:00;24.70;;;12.75;;
22557;SDS011;11445;53.816;8.902;2023-01-24T11:50:36;20.90;;;10.88;;
22557;SDS011;11445;53.816;8.902;2023-01-24T11:53:13;19.35;;;10.30;;
22557;SDS011;11445;53.816;8.902;2023-01-24T11:55:55;20.10;;;11.27;;
22557;SDS011;11445;53.816;8.902;2023-01-24T11:58:38;20.73;;;10.63;;
22557;SDS011;11445;53.816;8.902;2023-01-24T12:01:15;18.00;;;10.75;;
22557;SDS011;11445;53.816;8.902;2023-01-24T12:06:42;24.13;;;11.05;;
22557;SDS011;11445;53.816;8.902;2023-01-24T12:09:19;21.90;;;11.75;;
22557;SDS011;11445;53.816;8.902;2023-01-24T12:11:50;18.55;;;10.63;;
22557;SDS011;11445;53.816;8.902;2023-01-24T12:14:34;19.40;;;10.55;;
22557;SDS011;11445;53.816;8.902;2023-01-24T12:17:35;45.88;;;8.77;;
22557;SDS011;11445;53.816;8.902;2023-01-24T12:20:22;21.33;;;10.98;;
22557;SDS011;11445;53.816;8.902;2023-01-24T12:22:57;22.63;;;10.93;;
22557;SDS011;11445;53.816;8.902;2023-01-24T12:25:37;22.65;;;11.38;;
22557;SDS011;11445;53.816;8.902;2023-01-24T12:28:11;21.48;;;10.65;;
22557;SDS011;11445;53.816;8.902;2023-01-24T12:30:41;19.02;;;9.45;;
22557;SDS011;11445;53.816;8.902;2023-01-24T12:33:11;19.02;;;11.32;;
22557;SDS011;11445;53.816;8.902;2023-01-24T12:35:50;19.77;;;10.65;;
22557;SDS011;11445;53.816;8.902;2023-01-24T12:38:22;19.88;;;10.77;;
22557;SDS011;11445;53.816;8.902;2023-01-24T12:40:55;20.15;;;11.00;;
22557;SDS011;11445;53.816;8.902;2023-01-24T12:43:30;21.48;;;10.65;;
22557;SDS011;11445;53.816;8.902;2023-01-24T12:46:06;21.90;;;11.75;;
22557;SDS011;11445;53.816;8.902;2023-01-24T12:48:38;21.30;;;11.82;;
22557;SDS011;11445;53.816;8.902;2023-01-24T12:51:16;23.27;;;12.88;;
22557;SDS011;11445;53.816;8.902;2023-01-24T12:53:52;18.30;;;10.38;;
22557;SDS011;11445;53.816;8.902;2023-01-24T12:56:26;22.58;;;10.73;;
22557;SDS011;11445;53.816;8.902;2023-01-24T13:01:38;23.23;;;10.88;;
22557;SDS011;11445;53.816;8.902;2023-01-24T13:04:24;20.20;;;10.85;;
22557;SDS011;11445;53.816;8.902;2023-01-24T13:07:05;18.50;;;10.13;;
22557;SDS011;11445;53.816;8.902;2023-01-24T13:09:41;20.33;;;9.85;;
22557;SDS011;11445;53.816;8.902;2023-01-24T13:12:15;18.88;;;10.52;;
22557;SDS011;11445;53.816;8.902;2023-01-24T13:14:46;21.10;;;10.48;;
22557;SDS011;11445;53.816;8.902;2023-01-24T13:17:24;19.30;;;10.35;;
22557;SDS011;11445;53.816;8.902;2023-01-24T13:20:16;16.35;;;9.95;;
22557;SDS011;11445;53.816;8.902;2023-01-24T13:23:05;23.55;;;10.63;;
22557;SDS011;11445;53.816;8.902;2023-01-24T13:28:51;19.23;;;10.43;;
22557;SDS011;11445;53.816;8.902;2023-01-24T13:31:28;18.45;;;10.32;;
22557;SDS011;11445;53.816;8.902;2023-01-24T13:33:58;17.00;;;10.15;;
22557;SDS011;11445;53.816;8.902;2023-01-24T13:36:30;18.33;;;10.15;;
22557;SDS011;11445;53.816;8.902;2023-01-24T13:39:00;19.35;;;10.40;;
22557;SDS011;11445;53.816;8.902;2023-01-24T13:41:32;20.08;;;10.52;;
22557;SDS011;11445;53.816;8.902;2023-01-24T13:44:00;18.42;;;9.73;;
22557;SDS011;11445;53.816;8.902;2023-01-24T13:49:32;18.48;;;10.88;;
22557;SDS011;11445;53.816;8.902;2023-01-24T13:52:01;18.38;;;9.68;;
22557;SDS011;11445;53.816;8.902;2023-01-24T13:54:37;18.13;;;10.30;;
22557;SDS011;11445;53.816;8.902;2023-01-24T13:57:10;19.35;;;9.77;;
22557;SDS011;11445;53.816;8.902;2023-01-24T13:59:56;19.88;;;10.70;;
22557;SDS011;11445;53.816;8.902;2023-01-24T14:04:56;19.85;;;11.15;;
22557;SDS011;11445;53.816;8.902;2023-01-24T14:07:26;20.45;;;10.18;;
22557;SDS011;11445;53.816;8.902;2023-01-24T14:09:58;20.20;;;10.57;;
22557;SDS011;11445;53.816;8.902;2023-01-24T14:12:27;20.80;;;11.25;;
22557;SDS011;11445;53.816;8.902;2023-01-24T14:15:00;22.77;;;11.43;;
22557;SDS011;11445;53.816;8.902;2023-01-24T14:17:45;21.55;;;11.77;;
22557;SDS011;11445;53.816;8.902;2023-01-24T14:20:30;20.02;;;11.15;;
22557;SDS011;11445;53.816;8.902;2023-01-24T14:23:04;19.02;;;11.05;;
22557;SDS011;11445;53.816;8.902;2023-01-24T14:25:41;21.60;;;11.10;;
22557;SDS011;11445;53.816;8.902;2023-01-24T14:28:19;23.00;;;12.35;;
22557;SDS011;11445;53.816;8.902;2023-01-24T14:30:53;18.17;;;11.30;;
22557;SDS011;11445;53.816;8.902;2023-01-24T14:33:31;21.10;;;12.48;;
22557;SDS011;11445;53.816;8.902;2023-01-24T14:36:15;24.95;;;13.30;;
22557;SDS011;11445;53.816;8.902;2023-01-24T14:41:46;25.92;;;13.82;;
22557;SDS011;11445;53.816;8.902;2023-01-24T14:44:15;28.35;;;14.70;;
22557;SDS011;11445;53.816;8.902;2023-01-24T14:46:51;25.48;;;14.35;;
22557;SDS011;11445;53.816;8.902;2023-01-24T14:49:26;20.10;;;13.25;;
22557;SDS011;11445;53.816;8.902;2023-01-24T14:51:55;26.48;;;14.38;;
22557;SDS011;11445;53.816;8.902;2023-01-24T14:54:23;21.85;;;13.25;;
22557;SDS011;11445;53.816;8.902;2023-01-24T14:56:52;19.63;;;12.43;;
22557;SDS011;11445;53.816;8.902;2023-01-24T14:59:19;23.20;;;13.32;;
22557;SDS011;11445;53.816;8.902;2023-01-24T15:01:49;22.73;;;12.75;;
22557;SDS011;11445;53.816;8.902;2023-01-24T15:04:21;28.63;;;14.10;;
22557;SDS011;11445;53.816;8.902;2023-01-24T15:07:09;24.77;;;14.03;;
22557;SDS011;11445;53.816;8.902;2023-01-24T15:09:38;28.13;;;15.98;;